Time;durP1;ratioP1;P1;durP2;ratioP2;P2;SDS_P1;SDS_P2;PMS_P1;PMS_P2;Temp;Humidity;BMP_temperature;BMP_pressure;BME280_temperature;BME280_humidity;BME280_pressure;Samples;Min_cycle;Max_cycle;Signal;HPM_P1;HPM_P2
2022/01/15 00:00:49;;;;;;;35.10;20.60;;;;;;;0.87;100.00;99937.11;108186;1271;61245;-73
2022/01/15 00:03:16;;;;;;;29.80;19.00;;;;;;;0.86;100.00;99935.35;108165;1271;73547;-74
2022/01/15 00:05:43;;;;;;;30.40;19.50;;;;;;;0.86;100.00;99928.54;107707;1271;61286;-76
2022/01/15 00:08:09;;;;;;;26.70;16.50;;;;;;;0.85;100.00;99929.42;106154;1271;61367;-74
2022/01/15 00:10:36;;;;;;;26.30;17.30;;;;;;;0.84;100.00;99933.46;105253;1271;75355;-77
2022/01/15 00:13:07;;;;;;;32.50;18.30;;;;;;;0.83;100.00;99925.77;105332;1271;69410;-75
2022/01/15 00:15:39;;;;;;;30.50;18.20;;;;;;;0.82;100.00;99923.17;105322;1271;74712;-76
2022/01/15 00:18:11;;;;;;;31.80;19.80;;;;;;;0.79;100.00;99924.44;105248;1271;61274;-77
2022/01/15 00:20:38;;;;;;;24.60;16.70;;;;;;;0.76;100.00;99928.81;104958;1271;61167;-73
2022/01/15 00:23:05;;;;;;;27.90;16.00;;;;;;;0.73;100.00;99929.74;105181;1271;75309;-76
2022/01/15 00:25:33;;;;;;;26.30;18.00;;;;;;;0.72;100.00;99934.48;104925;1274;69099;-74
2022/01/15 00:28:00;;;;;;;33.40;18.00;;;;;;;0.72;100.00;99935.89;105351;1271;74407;-75
2022/01/15 00:30:27;;;;;;;36.10;17.10;;;;;;;0.73;100.00;99934.65;105280;1271;61326;-77
2022/01/15 00:32:54;;;;;;;31.30;17.90;;;;;;;0.73;100.00;99930.63;105159;1271;61352;-77
2022/01/15 00:35:23;;;;;;;26.90;14.60;;;;;;;0.72;100.00;99937.45;105192;1271;74824;-74
2022/01/15 00:37:50;;;;;;;20.60;12.30;;;;;;;0.71;100.00;99931.02;105253;1271;69159;-75
2022/01/15 00:40:19;;;;;;;28.10;14.30;;;;;;;0.69;100.00;99925.25;105126;1271;73092;-74
2022/01/15 00:42:46;;;;;;;25.20;15.00;;;;;;;0.65;100.00;99920.41;105213;1271;61297;-75
2022/01/15 00:45:19;;;;;;;30.60;14.90;;;;;;;0.62;100.00;99918.16;105140;1271;61358;-73
2022/01/15 00:47:46;;;;;;;23.50;14.50;;;;;;;0.59;100.00;99924.48;105164;1271;75384;-75
2022/01/15 00:50:13;;;;;;;26.80;14.10;;;;;;;0.60;100.00;99923.95;105183;1271;69470;-77
2022/01/15 00:52:41;;;;;;;27.80;14.60;;;;;;;0.59;100.00;99932.55;104951;1274;73174;-73
2022/01/15 00:55:10;;;;;;;20.30;12.80;;;;;;;0.57;100.00;99926.43;105162;1271;61278;-76
2022/01/15 00:57:37;;;;;;;23.70;13.00;;;;;;;0.57;100.00;99933.09;105161;1271;61266;-76
2022/01/15 01:00:06;;;;;;;19.30;10.00;;;;;;;0.54;100.00;99932.23;105223;1271;61300;-76
2022/01/15 01:02:33;;;;;;;24.60;13.30;;;;;;;0.53;100.00;99935.92;105270;1271;70393;-76
2022/01/15 01:05:00;;;;;;;21.80;12.50;;;;;;;0.55;100.00;99939.56;105754;1271;73328;-77
2022/01/15 01:07:27;;;;;;;19.90;10.60;;;;;;;0.55;100.00;99938.35;106107;1271;61288;-75
2022/01/15 01:10:14;;;;;;;24.30;11.80;;;;;;;0.52;100.00;99937.68;105991;1271;283448;-75
2022/01/15 01:23:09;;;;;;;20.50;11.30;;;;;;;0.40;100.00;99952.13;105139;1272;61279;-75
2022/01/15 01:25:41;;;;;;;22.90;11.50;;;;;;;0.38;100.00;99951.98;105095;1271;74695;-75
2022/01/15 01:28:13;;;;;;;24.20;12.20;;;;;;;0.35;100.00;99948.52;105194;1270;69094;-75
2022/01/15 01:30:46;;;;;;;23.70;11.50;;;;;;;0.34;100.00;99951.86;105161;1271;73183;-77
2022/01/15 01:35:46;;;;;;;22.10;11.80;;;;;;;0.30;100.00;99948.23;105157;1271;61919;-75
2022/01/15 01:38:21;;;;;;;24.30;13.00;;;;;;;0.28;100.00;99947.02;105170;1271;75222;-76
2022/01/15 01:40:50;;;;;;;23.10;13.80;;;;;;;0.27;100.00;99943.89;105124;1271;70745;-76
2022/01/15 01:45:49;;;;;;;20.60;13.40;;;;;;;0.26;100.00;99942.33;104944;1272;61237;-75
2022/01/15 01:48:15;;;;;;;26.40;13.90;;;;;;;0.25;100.00;99940.42;105202;1271;61352;-77
2022/01/15 01:50:43;;;;;;;26.80;13.30;;;;;;;0.24;100.00;99940.25;105174;1271;75197;-75
2022/01/15 01:53:10;;;;;;;22.80;12.20;;;;;;;0.25;100.00;99946.19;105195;1271;69158;-77
2022/01/15 01:55:37;;;;;;;21.30;12.20;;;;;;;0.27;100.00;99947.92;105225;1271;73131;-77
2022/01/15 01:58:03;;;;;;;25.40;13.30;;;;;;;0.28;100.00;99953.13;105122;1271;61332;-75
2022/01/15 02:00:31;;;;;;;21.50;13.20;;;;;;;0.31;100.00;99956.09;105148;1270;61396;-77
2022/01/15 02:02:58;;;;;;;24.10;12.30;;;;;;;0.33;100.00;99957.30;105214;1271;75141;-75
2022/01/15 02:05:27;;;;;;;30.50;13.70;;;;;;;0.34;100.00;99956.93;105154;1271;70068;-75
2022/01/15 02:07:54;;;;;;;25.10;13.00;;;;;;;0.34;100.00;99955.70;105221;1271;73521;-75
2022/01/15 02:10:21;;;;;;;26.10;12.40;;;;;;;0.33;100.00;99958.50;105211;1271;61243;-75
2022/01/15 02:12:50;;;;;;;19.60;10.70;;;;;;;0.34;100.00;99956.41;105205;1271;62230;-74
2022/01/15 02:15:20;;;;;;;29.80;13.70;;;;;;;0.32;100.00;99954.67;105256;1271;76113;-75
2022/01/15 02:17:48;;;;;;;28.90;13.50;;;;;;;0.30;100.00;99952.77;105231;1271;68912;-74
2022/01/15 02:25:43;;;;;;;29.30;17.00;;;;;;;0.25;100.00;99949.49;105160;1271;61105;-76
2022/01/15 02:28:10;;;;;;;28.60;14.40;;;;;;;0.21;100.00;99949.02;105146;1271;75323;-75
2022/01/15 02:30:37;;;;;;;26.80;15.20;;;;;;;0.19;100.00;99950.95;105176;1271;69542;-75
2022/01/15 02:33:05;;;;;;;29.00;14.80;;;;;;;0.18;100.00;99952.00;105188;1271;73841;-77
2022/01/15 02:35:33;;;;;;;28.40;14.80;;;;;;;0.18;100.00;99956.20;105219;1271;61193;-77
2022/01/15 02:38:05;;;;;;;32.20;16.80;;;;;;;0.19;100.00;99956.38;105185;1271;61811;-77
2022/01/15 02:40:37;;;;;;;23.40;16.10;;;;;;;0.19;100.00;99952.70;105188;1271;75333;-75
2022/01/15 02:43:05;;;;;;;31.80;17.00;;;;;;;0.18;100.00;99954.10;105182;1271;70432;-75
2022/01/15 02:45:34;;;;;;;24.50;16.00;;;;;;;0.19;100.00;99955.50;104906;1271;73318;-76
2022/01/15 02:48:03;;;;;;;25.10;15.00;;;;;;;0.19;100.00;99956.55;104988;1271;61303;-75
2022/01/15 02:50:30;;;;;;;25.70;14.00;;;;;;;0.20;100.00;99961.08;105040;1271;61333;-76
2022/01/15 02:53:01;;;;;;;31.20;16.10;;;;;;;0.21;100.00;99961.08;105195;1271;76050;-76
2022/01/15 02:55:27;;;;;;;27.00;16.20;;;;;;;0.23;100.00;99961.05;105246;1271;69237;-76
2022/01/15 02:57:55;;;;;;;31.60;16.90;;;;;;;0.24;100.00;99965.41;105164;1271;73513;-77
2022/01/15 03:00:47;;;;;;;31.50;17.60;;;;;;;0.26;100.00;99971.68;105191;1271;61348;-76
2022/01/15 03:03:13;;;;;;;27.00;15.80;;;;;;;0.27;100.00;99970.64;105154;1271;61207;-76
2022/01/15 03:05:40;;;;;;;27.30;16.80;;;;;;;0.28;100.00;99970.44;105219;1271;75352;-76
2022/01/15 03:08:07;;;;;;;30.00;17.50;;;;;;;0.28;100.00;99971.84;105130;1271;70963;-74
2022/01/15 03:10:33;;;;;;;31.00;19.20;;;;;;;0.29;100.00;99976.55;105198;1270;73791;-76
2022/01/15 03:13:01;;;;;;;30.20;18.70;;;;;;;0.29;100.00;99976.20;105163;1271;61240;-76
2022/01/15 03:15:29;;;;;;;28.60;18.30;;;;;;;0.29;100.00;99977.77;105179;1271;61229;-77
2022/01/15 03:17:56;;;;;;;33.00;17.90;;;;;;;0.29;100.00;99981.98;105161;1271;75254;-74
2022/01/15 03:20:23;;;;;;;32.90;18.20;;;;;;;0.30;100.00;99979.86;105204;1271;70498;-74
2022/01/15 03:22:49;;;;;;;29.60;18.60;;;;;;;0.30;100.00;99981.09;105142;1271;74447;-75
2022/01/15 03:25:16;;;;;;;33.90;20.20;;;;;;;0.30;100.00;99977.23;105142;1271;61282;-76
2022/01/15 03:27:43;;;;;;;34.40;20.60;;;;;;;0.29;100.00;99974.11;105174;1271;61322;-75
2022/01/15 03:30:11;;;;;;;38.10;22.50;;;;;;;0.28;100.00;99975.50;105175;1271;75606;-74
2022/01/15 03:32:43;;;;;;;32.10;18.70;;;;;;;0.28;100.00;99974.80;105159;1271;69973;-76
2022/01/15 03:35:15;;;;;;;39.30;26.10;;;;;;;0.28;100.00;99971.14;105185;1271;73147;-75
2022/01/15 03:37:42;;;;;;;36.70;25.40;;;;;;;0.28;100.00;99962.23;105238;1271;61327;-75
2022/01/15 03:40:12;;;;;;;41.00;25.50;;;;;;;0.26;100.00;99961.02;105213;1271;61898;-76
2022/01/15 03:42:38;;;;;;;;;;;;;;;0.25;100.00;99967.67;105018;1271;74295;-73
2022/01/15 03:45:06;;;;;;;42.50;23.70;;;;;;;0.23;100.00;99967.01;105145;1271;61383;-74
2022/01/15 03:47:32;;;;;;;37.60;22.70;;;;;;;0.23;100.00;99974.86;105105;1271;74800;-74
2022/01/15 03:49:59;;;;;;;38.80;25.80;;;;;;;0.24;100.00;99979.92;105026;1271;61285;-75
2022/01/15 03:52:26;;;;;;;39.00;22.80;;;;;;;0.26;100.00;99982.00;105217;1271;61297;-75
2022/01/15 03:54:52;;;;;;;41.90;22.80;;;;;;;0.26;100.00;99982.33;104934;1271;74789;-75
2022/01/15 03:57:19;;;;;;;42.00;22.60;;;;;;;0.26;100.00;99980.42;105155;1271;69515;-76
2022/01/15 03:59:45;;;;;;;41.70;22.30;;;;;;;0.27;100.00;99979.02;105168;1271;73011;-75
2022/01/15 04:02:12;;;;;;;35.30;22.00;;;;;;;0.29;100.00;99981.27;105151;1271;61277;-75
2022/01/15 04:04:39;;;;;;;44.10;24.60;;;;;;;0.31;100.00;99979.51;104920;1271;61317;-75
2022/01/15 04:07:05;;;;;;;45.90;24.90;;;;;;;0.32;100.00;99977.23;105168;1271;76399;-76
2022/01/15 04:09:32;;;;;;;37.80;22.90;;;;;;;0.32;100.00;99980.73;105058;1271;69404;-75
2022/01/15 04:11:59;;;;;;;42.50;22.90;;;;;;;0.33;100.00;99985.59;105227;1271;74283;-74
2022/01/15 04:14:25;;;;;;;48.90;25.60;;;;;;;0.33;100.00;99982.27;105118;1271;61270;-75
2022/01/15 04:16:52;;;;;;;41.10;24.50;;;;;;;0.33;100.00;99985.77;104990;1271;62360;-76
2022/01/15 04:19:19;;;;;;;36.50;20.90;;;;;;;0.35;100.00;99988.21;105232;1271;76380;-74
2022/01/15 04:21:45;;;;;;;36.10;20.60;;;;;;;0.35;100.00;99988.04;105223;1271;69210;-76
2022/01/15 04:24:12;;;;;;;39.10;21.80;;;;;;;0.35;100.00;99991.01;105159;1271;72728;-74
2022/01/15 04:26:38;;;;;;;40.00;22.80;;;;;;;0.35;100.00;99990.65;105277;1271;61453;-75
2022/01/15 04:29:06;;;;;;;41.70;26.40;;;;;;;0.36;100.00;99995.19;105158;1271;61320;-75
2022/01/15 04:31:47;;;;;;;45.10;25.50;;;;;;;0.37;100.00;99995.86;105187;1271;75154;-74
2022/01/15 04:34:18;;;;;;;42.90;25.90;;;;;;;0.37;100.00;99998.32;105298;1270;68863;-75
2022/01/15 04:36:44;;;;;;;;;;;;;;;0.37;100.00;100003.56;105208;1271;73281;-76
2022/01/15 04:39:11;;;;;;;32.30;18.10;;;;;;;0.36;100.00;100005.33;105183;1271;62006;-75
2022/01/15 04:41:38;;;;;;;30.70;18.70;;;;;;;0.35;100.00;100007.43;105179;1271;61787;-77
2022/01/15 04:44:06;;;;;;;36.90;19.70;;;;;;;0.35;100.00;100009.89;105180;1271;75447;-75
2022/01/15 04:46:34;;;;;;;31.50;19.30;;;;;;;0.36;100.00;100010.23;104414;1271;1003587;-75
2022/01/15 04:49:02;;;;;;;29.80;19.50;;;;;;;0.36;100.00;100007.77;104939;1271;73117;-75
2022/01/15 04:51:28;;;;;;;29.80;18.00;;;;;;;0.36;100.00;100010.39;105046;1271;61393;-74
2022/01/15 04:53:55;;;;;;;30.90;19.10;;;;;;;0.35;100.00;100010.41;105106;1271;61686;-75
2022/01/15 04:56:22;;;;;;;25.10;16.20;;;;;;;0.34;100.00;100010.23;105086;1271;75427;-76
2022/01/15 04:58:49;;;;;;;24.20;14.70;;;;;;;0.32;100.00;100008.69;105150;1271;69143;-75
2022/01/15 05:01:16;;;;;;;21.70;12.40;;;;;;;0.29;100.00;100008.36;105156;1271;74189;-76
2022/01/15 05:03:43;;;;;;;25.50;15.20;;;;;;;0.28;100.00;100010.29;105161;1271;61345;-75
2022/01/15 05:06:09;;;;;;;21.50;14.00;;;;;;;0.27;100.00;100014.33;104944;1271;61831;-74
2022/01/15 05:08:36;;;;;;;26.30;15.40;;;;;;;0.26;100.00;100020.27;105154;1271;76180;-76
2022/01/15 05:11:13;;;;;;;28.20;17.20;;;;;;;0.26;100.00;100022.54;105181;1271;70309;-75
2022/01/15 05:13:39;;;;;;;24.50;15.40;;;;;;;0.26;100.00;100019.74;105132;1271;73142;-76
2022/01/15 05:16:07;;;;;;;26.30;13.90;;;;;;;0.24;100.00;100021.52;105126;1271;60541;-76
2022/01/15 05:18:34;;;;;;;19.60;13.20;;;;;;;0.22;100.00;100018.55;104955;1272;61288;-75
2022/01/15 05:21:00;;;;;;;24.90;13.80;;;;;;;0.20;100.00;100021.37;105177;1271;76231;-75
2022/01/15 05:23:27;;;;;;;24.60;14.70;;;;;;;0.20;100.00;100020.66;105153;1271;68825;-75
2022/01/15 05:25:53;;;;;;;32.10;17.70;;;;;;;0.20;100.00;100017.35;104934;1271;61204;-74
2022/01/15 05:28:20;;;;;;;33.50;17.40;;;;;;;0.19;100.00;100017.36;105137;1271;61303;-75
2022/01/15 05:30:47;;;;;;;26.30;14.20;;;;;;;0.18;100.00;100012.98;105015;1271;61606;-75
2022/01/15 05:33:16;;;;;;;32.00;18.10;;;;;;;0.18;100.00;100012.64;104855;1271;61304;-75
2022/01/15 05:35:42;;;;;;;32.40;17.50;;;;;;;0.18;100.00;100010.02;105087;1270;69344;-76
2022/01/15 05:38:09;;;;;;;33.60;20.60;;;;;;;0.15;100.00;100010.05;105134;1271;73484;-77
2022/01/15 05:40:36;;;;;;;30.20;18.60;;;;;;;0.13;100.00;100014.80;105202;1270;61308;-76
2022/01/15 05:43:03;;;;;;;33.70;18.80;;;;;;;0.11;100.00;100020.75;105135;1271;61781;-76
2022/01/15 05:45:29;;;;;;;31.50;19.80;;;;;;;0.08;100.00;100025.14;105174;1271;61288;-77
2022/01/15 05:47:56;;;;;;;36.20;20.70;;;;;;;0.05;100.00;100021.32;105215;1271;61195;-76
2022/01/15 05:50:23;;;;;;;34.60;20.40;;;;;;;0.01;100.00;100023.09;105229;1271;73345;-76
2022/01/15 05:52:49;;;;;;;33.80;19.30;;;;;;;-0.04;100.00;100025.58;105260;1271;61256;-75
2022/01/15 05:55:16;;;;;;;35.80;17.90;;;;;;;-0.07;100.00;100025.77;105275;1271;61383;-76
2022/01/15 05:57:43;;;;;;;38.90;20.40;;;;;;;-0.07;100.00;100024.02;105233;1271;76399;-74
2022/01/15 06:00:10;;;;;;;36.20;20.50;;;;;;;-0.07;100.00;100026.30;105273;1271;70624;-76
2022/01/15 06:02:37;;;;;;;38.20;20.80;;;;;;;-0.08;100.00;100016.71;105295;1271;73528;-77
2022/01/15 06:05:04;;;;;;;37.60;21.00;;;;;;;-0.09;100.00;100020.02;105664;1271;61397;-76
2022/01/15 06:07:31;;;;;;;36.10;19.70;;;;;;;-0.10;100.00;100017.60;106104;1271;61199;-74
2022/01/15 06:09:58;;;;;;;39.30;21.60;;;;;;;-0.10;100.00;100023.00;106746;1271;75695;-77
2022/01/15 06:12:30;;;;;;;33.60;20.00;;;;;;;-0.10;100.00;100026.33;106131;1271;70194;-75
2022/01/15 06:14:57;;;;;;;36.90;19.70;;;;;;;-0.10;100.00;100025.27;107677;1271;73059;-76
2022/01/15 06:17:27;;;;;;;37.40;19.40;;;;;;;-0.13;100.00;100020.92;107365;1271;61181;-76
2022/01/15 06:19:53;;;;;;;35.50;18.50;;;;;;;-0.19;100.00;100025.34;108088;1271;59106;-74
2022/01/15 06:22:20;;;;;;;36.80;19.30;;;;;;;-0.27;100.00;100026.77;108235;1271;75071;-73
2022/01/15 06:24:46;;;;;;;36.00;20.00;;;;;;;-0.35;100.00;100026.65;107179;1271;68485;-75
2022/01/15 06:27:15;;;;;;;35.60;18.80;;;;;;;-0.41;100.00;100028.98;105223;1271;61311;-77
2022/01/15 06:29:41;;;;;;;33.40;18.10;;;;;;;-0.48;100.00;100030.75;105232;1271;61311;-76
2022/01/15 06:32:08;;;;;;;34.90;18.40;;;;;;;-0.54;100.00;100029.90;105199;1271;62075;-77
2022/01/15 06:34:35;;;;;;;36.10;18.30;;;;;;;-0.61;100.00;100029.59;105249;1271;75325;-76
2022/01/15 06:37:01;;;;;;;41.30;20.10;;;;;;;-0.66;100.00;100033.11;105238;1271;61290;-76
2022/01/15 06:39:28;;;;;;;33.10;17.40;;;;;;;-0.71;100.00;100035.92;104932;1271;74505;-75
2022/01/15 06:41:54;;;;;;;44.80;21.20;;;;;;;-0.73;100.00;100037.86;105274;1270;61307;-74
2022/01/15 06:44:21;;;;;;;43.10;21.50;;;;;;;-0.74;100.00;100035.77;105220;1271;61217;-76
2022/01/15 06:46:47;;;;;;;34.80;18.40;;;;;;;-0.74;100.00;100039.26;105192;1271;61208;-74
2022/01/15 06:49:14;;;;;;;46.30;24.00;;;;;;;-0.73;100.00;100044.48;105084;1271;61482;-76
2022/01/15 06:51:40;;;;;;;50.20;24.40;;;;;;;-0.70;100.00;100052.31;105270;1271;61397;-76
2022/01/15 06:54:07;;;;;;;52.10;24.90;;;;;;;-0.65;100.00;100054.57;105190;1270;61258;-76
2022/01/15 06:56:34;;;;;;;52.90;26.10;;;;;;;-0.61;100.00;100054.38;104910;1271;61371;-76
2022/01/15 06:59:00;;;;;;;49.90;27.50;;;;;;;-0.58;100.00;100051.74;105191;1271;75195;-77
2022/01/15 07:01:27;;;;;;;55.60;28.60;;;;;;;-0.55;100.00;100055.23;105204;1271;70635;-76
2022/01/15 07:03:53;;;;;;;50.30;26.20;;;;;;;-0.53;100.00;100050.49;105119;1271;61348;-78
2022/01/15 07:06:20;;;;;;;51.50;25.40;;;;;;;-0.53;100.00;100052.06;105136;1271;61375;-75
2022/01/15 07:08:46;;;;;;;54.20;27.10;;;;;;;-0.52;100.00;100055.73;105259;1271;61260;-75
2022/01/15 07:11:14;;;;;;;52.20;24.50;;;;;;;-0.53;100.00;100065.15;105354;1271;75580;-75
2022/01/15 07:13:40;;;;;;;53.10;26.10;;;;;;;-0.52;100.00;100066.02;105226;1271;69144;-77
2022/01/15 07:16:07;;;;;;;61.00;28.10;;;;;;;-0.51;100.00;100071.08;105197;1271;73643;-75
2022/01/15 07:18:33;;;;;;;57.10;28.40;;;;;;;-0.46;100.00;100075.95;105219;1271;61369;-74
2022/01/15 07:21:00;;;;;;;62.30;29.50;;;;;;;-0.40;100.00;100086.73;105216;1271;61366;-76
2022/01/15 07:23:27;;;;;;;60.00;29.50;;;;;;;-0.33;100.00;100090.72;105206;1271;75323;-75
2022/01/15 07:25:53;;;;;;;55.70;25.40;;;;;;;-0.25;100.00;100090.16;105230;1271;69404;-74
2022/01/15 07:28:20;;;;;;;58.20;28.70;;;;;;;-0.17;100.00;100091.50;105193;1271;72388;-76
2022/01/15 07:30:47;;;;;;;67.20;32.90;;;;;;;-0.09;100.00;100089.38;105202;1271;61268;-76
2022/01/15 07:33:13;;;;;;;62.50;29.50;;;;;;;-0.02;100.00;100090.20;105184;1271;61291;-76
2022/01/15 07:35:43;;;;;;;52.00;25.50;;;;;;;0.06;100.00;100085.79;105111;1271;61355;-76
2022/01/15 07:38:13;;;;;;;49.20;24.00;;;;;;;0.12;100.00;100083.30;105279;1271;69256;-75
2022/01/15 07:40:40;;;;;;;;;;;;;;;0.18;100.00;100076.42;105104;1271;74278;-74
2022/01/15 07:43:07;;;;;;;49.20;24.30;;;;;;;0.22;100.00;100081.48;105215;1271;61503;-76
2022/01/15 07:45:34;;;;;;;45.60;26.00;;;;;;;0.28;100.00;100080.38;105150;1271;61203;-75
2022/01/15 07:48:00;;;;;;;54.70;27.80;;;;;;;0.34;100.00;100079.10;105209;1270;76168;-76
2022/01/15 07:50:27;;;;;;;46.40;23.40;;;;;;;0.37;100.00;100078.39;105244;1271;69175;-76
2022/01/15 07:52:57;;;;;;;55.40;26.10;;;;;;;0.38;100.00;100080.83;105188;1271;73186;-76
2022/01/15 07:55:25;;;;;;;43.80;24.90;;;;;;;0.39;100.00;100081.52;105182;1271;61313;-76
2022/01/15 07:57:51;;;;;;;45.60;25.80;;;;;;;0.42;100.00;100079.21;105215;1271;61304;-75
2022/01/15 08:00:19;;;;;;;49.70;26.00;;;;;;;0.44;100.00;100079.02;105290;1271;75988;-75
2022/01/15 08:02:46;;;;;;;50.30;30.50;;;;;;;0.45;100.00;100078.50;105222;1271;66294;-78
2022/01/15 08:05:13;;;;;;;48.20;28.00;;;;;;;0.44;100.00;100079.89;105224;1271;74026;-77
2022/01/15 08:07:40;;;;;;;49.10;27.50;;;;;;;0.48;100.00;100076.02;105265;1271;61307;-77
2022/01/15 08:10:09;;;;;;;64.80;36.30;;;;;;;0.53;100.00;100078.61;105182;1271;61874;-75
2022/01/15 08:12:48;;;;;;;67.50;37.10;;;;;;;0.58;100.00;100075.76;105297;1271;74949;-76
2022/01/15 08:15:16;;;;;;;61.70;36.00;;;;;;;0.65;100.00;100079.36;105374;1271;69097;-76
2022/01/15 08:17:43;;;;;;;61.30;32.10;;;;;;;0.73;100.00;100082.62;105204;1271;73178;-76
2022/01/15 08:20:11;;;;;;;67.60;37.30;;;;;;;0.79;100.00;100083.60;105169;1271;61308;-76
2022/01/15 08:22:42;;;;;;;60.00;33.80;;;;;;;0.90;100.00;100082.27;105231;1271;61179;-76
2022/01/15 08:25:09;;;;;;;52.10;26.50;;;;;;;0.99;100.00;100085.16;105096;1271;75123;-73
2022/01/15 08:27:36;;;;;;;58.80;32.20;;;;;;;1.11;100.00;100083.98;105143;1271;69087;-76
2022/01/15 08:30:05;;;;;;;64.40;31.40;;;;;;;1.20;100.00;100083.17;105197;1271;61154;-74
2022/01/15 08:32:31;;;;;;;66.10;33.10;;;;;;;1.23;100.00;100089.45;105247;1270;61309;-77
2022/01/15 08:34:58;;;;;;;47.60;25.10;;;;;;;1.20;100.00;100095.43;105208;1271;62103;-76
2022/01/15 08:37:24;;;;;;;62.70;32.50;;;;;;;1.16;100.00;100092.15;105217;1271;75106;-75
2022/01/15 08:39:51;;;;;;;51.70;27.80;;;;;;;1.16;100.00;100096.17;105256;1270;69367;-75
2022/01/15 08:42:17;;;;;;;51.50;28.20;;;;;;;1.25;100.00;100099.58;104972;1271;74147;-75
2022/01/15 08:44:45;;;;;;;52.80;27.60;;;;;;;1.32;100.00;100093.73;105210;1270;61343;-76
2022/01/15 08:47:12;;;;;;;47.30;25.10;;;;;;;1.29;100.00;100097.24;105118;1271;61288;-80
2022/01/15 08:49:39;;;;;;;51.00;27.70;;;;;;;1.29;100.00;100096.39;104328;1271;1002979;-74
2022/01/15 08:52:07;;;;;;;46.40;26.80;;;;;;;1.31;100.00;100097.75;105107;1271;70287;-76
2022/01/15 08:54:36;;;;;;;46.50;27.50;;;;;;;1.35;100.00;100097.36;105052;1271;72883;-74
2022/01/15 08:57:02;;;;;;;52.00;27.70;;;;;;;1.38;100.00;100098.37;104946;1271;61282;-78
2022/01/15 08:59:29;;;;;;;52.40;28.10;;;;;;;1.37;100.00;100108.19;105247;1271;61135;-75
2022/01/15 09:01:58;;;;;;;46.80;25.70;;;;;;;1.38;100.00;100108.70;104974;1271;61298;-74
2022/01/15 09:04:25;;;;;;;47.30;25.90;;;;;;;1.40;100.00;100105.02;105407;1271;70365;-74
2022/01/15 09:06:52;;;;;;;46.60;25.80;;;;;;;1.39;100.00;100105.20;105245;1271;74592;-75
2022/01/15 09:09:18;;;;;;;42.50;25.10;;;;;;;1.40;100.00;100103.27;105228;1270;61173;-76
2022/01/15 09:11:45;;;;;;;43.10;24.00;;;;;;;1.40;100.00;100106.58;105272;1271;61893;-76
2022/01/15 09:14:12;;;;;;;42.90;25.40;;;;;;;1.39;100.00;100103.09;105142;1271;75420;-75
2022/01/15 09:16:39;;;;;;;43.50;24.90;;;;;;;1.41;100.00;100097.30;104984;1271;69235;-75
2022/01/15 09:19:07;;;;;;;39.60;22.50;;;;;;;1.43;100.00;100101.11;105268;1268;74194;-74
2022/01/15 09:21:33;;;;;;;43.20;23.90;;;;;;;1.44;100.00;100102.68;105238;1270;61282;-77
2022/01/15 09:24:01;;;;;;;40.30;23.70;;;;;;;1.48;100.00;100098.61;105289;1271;61250;-75
2022/01/15 09:32:04;;;;;;;40.00;23.10;;;;;;;1.63;100.00;100104.02;105068;1271;74818;-76
2022/01/15 09:34:34;;;;;;;44.80;24.40;;;;;;;1.64;100.00;100104.02;105376;1271;61324;-76
2022/01/15 09:37:06;;;;;;;45.70;23.50;;;;;;;1.65;100.00;100106.09;105144;1271;61368;-75
2022/01/15 09:39:33;;;;;;;41.80;26.20;;;;;;;1.72;100.00;100098.13;105305;1271;75138;-76
2022/01/15 09:42:00;;;;;;;37.20;22.50;;;;;;;1.79;100.00;100094.36;105195;1271;69254;-75
2022/01/15 09:44:26;;;;;;;40.20;23.20;;;;;;;1.84;100.00;100088.50;105203;1271;73459;-74
2022/01/15 09:46:54;;;;;;;41.50;24.40;;;;;;;1.87;100.00;100089.70;105227;1270;61175;-77
2022/01/15 09:49:23;;;;;;;40.60;21.90;;;;;;;1.89;100.00;100089.84;105232;1270;61368;-76
2022/01/15 09:51:50;;;;;;;34.40;18.40;;;;;;;1.94;100.00;100085.56;105025;1271;76564;-76
2022/01/15 09:54:18;;;;;;;37.10;21.90;;;;;;;1.95;100.00;100086.42;105199;1271;68848;-77
2022/01/15 09:56:46;;;;;;;41.20;22.30;;;;;;;1.98;100.00;100093.23;104534;1271;1015875;-75
2022/01/15 09:59:13;;;;;;;39.10;21.90;;;;;;;2.04;100.00;100098.91;105391;1271;61380;-75
2022/01/15 10:01:40;;;;;;;38.50;20.40;;;;;;;2.10;100.00;100099.69;105257;1271;61291;-75
2022/01/15 10:04:07;;;;;;;32.20;18.50;;;;;;;2.17;100.00;100095.40;105194;1271;76006;-75
2022/01/15 10:06:34;;;;;;;28.50;17.00;;;;;;;2.20;100.00;100090.61;105049;1271;68212;-75
2022/01/15 10:09:07;;;;;;;37.70;18.70;;;;;;;2.26;100.00;100092.80;105237;1271;73131;-74
2022/01/15 10:11:51;;;;;;;30.80;16.90;;;;;;;2.32;100.00;100095.34;105180;1271;61233;-74
2022/01/15 10:14:33;;;;;;;29.80;16.60;;;;;;;2.35;100.00;100090.73;105378;1270;61206;-72
2022/01/15 10:17:22;;;;;;;36.50;17.60;;;;;;;2.37;99.77;100080.69;105300;1271;74749;-75
2022/01/15 10:19:49;;;;;;;36.70;16.20;;;;;;;2.39;99.97;100088.20;104579;1278;70257;-75
2022/01/15 10:22:17;;;;;;;32.10;15.60;;;;;;;2.43;100.00;100091.13;104689;1278;73333;-75
2022/01/15 10:25:19;;;;;;;26.50;15.80;;;;;;;2.53;99.93;100094.12;104568;1277;61394;-74
2022/01/15 10:27:51;;;;;;;29.20;16.90;;;;;;;2.62;99.48;100093.09;104014;1285;61433;-74
2022/01/15 10:30:28;;;;;;;27.80;15.80;;;;;;;2.68;99.96;100100.00;104072;1285;73658;-76
2022/01/15 10:32:55;;;;;;;26.70;15.20;;;;;;;2.78;99.83;100097.56;104165;1285;67354;-76
2022/01/15 10:35:24;;;;;;;36.20;16.20;;;;;;;2.82;98.83;100094.50;103905;1285;73336;-77
2022/01/15 10:37:56;;;;;;;25.70;14.90;;;;;;;2.84;98.95;100095.17;104126;1285;61289;-75
2022/01/15 10:40:27;;;;;;;31.00;16.60;;;;;;;2.86;96.89;100091.45;104210;1285;61473;-74
2022/01/15 10:42:59;;;;;;;32.50;17.90;;;;;;;2.77;95.39;100093.53;104147;1285;73371;-75
2022/01/15 10:45:31;;;;;;;30.80;16.20;;;;;;;2.76;96.19;100092.16;104153;1285;70731;-75
2022/01/15 10:48:01;;;;;;;28.20;15.40;;;;;;;2.79;95.39;100094.38;103996;1285;73241;-77
2022/01/15 10:50:34;;;;;;;31.40;16.40;;;;;;;2.81;96.55;100098.73;104066;1285;61396;-75
2022/01/15 10:53:11;;;;;;;35.70;18.50;;;;;;;2.90;96.49;100101.74;103809;1285;61410;-79
2022/01/15 10:55:40;;;;;;;36.60;18.80;;;;;;;2.94;96.76;100099.19;104065;1285;75805;-76
2022/01/15 10:58:11;;;;;;;27.60;17.40;;;;;;;3.00;96.74;100097.34;104419;1279;69113;-76
2022/01/15 11:00:41;;;;;;;30.10;17.30;;;;;;;3.03;96.45;100099.04;104522;1279;73118;-75
2022/01/15 11:03:12;;;;;;;29.10;17.40;;;;;;;3.03;95.81;100097.64;104593;1279;61383;-74
2022/01/15 11:05:44;;;;;;;35.10;19.30;;;;;;;3.01;95.32;100098.54;105141;1271;61318;-78
2022/01/15 11:08:14;;;;;;;31.10;17.90;;;;;;;2.97;95.25;100093.36;105211;1271;76190;-76
2022/01/15 11:10:44;;;;;;;33.40;20.50;;;;;;;2.92;95.11;100095.90;105291;1271;69278;-74
2022/01/15 11:13:14;;;;;;;28.80;18.60;;;;;;;2.92;95.47;100095.54;105475;1271;74289;-75
2022/01/15 11:15:44;;;;;;;32.70;20.40;;;;;;;2.96;95.31;100093.04;105198;1271;61383;-76
2022/01/15 11:18:17;;;;;;;28.00;15.30;;;;;;;2.99;95.01;100101.40;105924;1271;62086;-75
2022/01/15 11:20:50;;;;;;;27.30;14.30;;;;;;;2.95;94.18;100101.30;106263;1271;76247;-75
2022/01/15 11:23:20;;;;;;;25.80;14.80;;;;;;;2.93;93.99;100097.13;106152;1271;67341;-76
2022/01/15 11:25:47;;;;;;;23.90;15.50;;;;;;;2.93;94.39;100094.14;105329;1270;72236;-73
2022/01/15 11:28:14;;;;;;;26.70;14.80;;;;;;;2.93;94.50;100087.46;105219;1271;61319;-76
2022/01/15 11:30:44;;;;;;;28.40;15.20;;;;;;;2.95;93.86;100090.77;105297;1271;61230;-77
2022/01/15 11:33:12;;;;;;;25.10;14.60;;;;;;;2.95;94.23;100093.39;105350;1271;74192;-77
2022/01/15 11:35:44;;;;;;;24.60;14.00;;;;;;;3.02;94.35;100095.73;105270;1271;68992;-75